createdAt,value
2019-01-24T00:01:05.093Z,94172.00
2019-01-24T00:03:36.987Z,94191.00
2019-01-24T00:06:08.946Z,94192.00
2019-01-24T00:08:40.842Z,94194.00
2019-01-24T00:11:12.704Z,94193.00
2019-01-24T00:13:44.914Z,94195.00
2019-01-24T00:16:17.863Z,94193.00
2019-01-24T00:18:50.215Z,94191.00
2019-01-24T00:21:22.228Z,94204.00
2019-01-24T00:23:54.144Z,94203.00
2019-01-24T00:26:26.009Z,94208.00
2019-01-24T00:28:57.906Z,94219.00
2019-01-24T00:31:29.752Z,94214.00
2019-01-24T00:34:01.644Z,94208.00
2019-01-24T00:36:33.504Z,94216.00
2019-01-24T00:39:08.556Z,94227.00
2019-01-24T00:41:40.429Z,94217.00
2019-01-24T00:44:12.327Z,94220.00
2019-01-24T00:46:44.185Z,94227.00
2019-01-24T00:49:16.105Z,94233.00
2019-01-24T00:51:47.970Z,94219.00
2019-01-24T00:54:19.853Z,94226.00
2019-01-24T00:56:51.721Z,94235.00
2019-01-24T00:59:23.619Z,94229.00
2019-01-24T01:01:55.480Z,94229.00
2019-01-24T01:04:29.796Z,94231.00
2019-01-24T01:07:01.019Z,94237.00
2019-01-24T01:09:32.915Z,94253.00
2019-01-24T01:12:04.780Z,94248.00
2019-01-24T01:14:36.753Z,94258.00
2019-01-24T01:17:08.616Z,94258.00
2019-01-24T01:19:40.501Z,94264.00
2019-01-24T01:22:12.368Z,94261.00
2019-01-24T01:24:44.250Z,94259.00
2019-01-24T01:27:16.106Z,94256.00
2019-01-24T01:29:48.015Z,94271.00
2019-01-24T01:32:19.891Z,94274.00
2019-01-24T01:34:51.790Z,94271.00
2019-01-24T01:37:23.654Z,94276.00
2019-01-24T01:39:55.556Z,94281.00
2019-01-24T01:42:27.494Z,94282.00
2019-01-24T01:44:59.387Z,94285.00
2019-01-24T01:47:31.253Z,94289.00
2019-01-24T01:50:03.208Z,94281.00
2019-01-24T01:52:35.063Z,94286.00
2019-01-24T01:55:07.038Z,94279.00
2019-01-24T01:57:38.897Z,94275.00
2019-01-24T02:00:20.807Z,94280.00
2019-01-24T02:02:52.797Z,94279.00
2019-01-24T02:05:24.693Z,94278.00
2019-01-24T02:07:56.595Z,94285.00
2019-01-24T02:10:28.479Z,94288.00
2019-01-24T02:13:00.367Z,94296.00
2019-01-24T02:15:32.226Z,94294.00
2019-01-24T02:18:04.133Z,94303.00
2019-01-24T02:20:36.025Z,94293.00
2019-01-24T02:23:08.020Z,94301.00
2019-01-24T02:25:39.952Z,94312.00
2019-01-24T02:28:11.852Z,94319.00
2019-01-24T02:30:43.835Z,94313.00
2019-01-24T02:33:15.791Z,94304.00
2019-01-24T02:35:47.654Z,94301.00
2019-01-24T02:38:19.544Z,94314.00
2019-01-24T02:40:51.407Z,94323.00
2019-01-24T02:43:23.293Z,94319.00
2019-01-24T02:45:55.160Z,94320.00
2019-01-24T02:48:27.042Z,94324.00
2019-01-24T02:50:59.003Z,94331.00
2019-01-24T02:53:30.881Z,94329.00
2019-01-24T02:56:02.744Z,94334.00
2019-01-24T02:58:34.626Z,94339.00
2019-01-24T03:01:06.597Z,94339.00
2019-01-24T03:03:38.486Z,94334.00
2019-01-24T03:06:10.359Z,94338.00
2019-01-24T03:08:42.240Z,94352.00
2019-01-24T03:11:14.099Z,94351.00
2019-01-24T03:13:45.994Z,94361.00
2019-01-24T03:16:17.860Z,94359.00
2019-01-24T03:18:49.770Z,94354.00
2019-01-24T03:21:21.635Z,94360.00
2019-01-24T03:23:53.522Z,94362.00
2019-01-24T03:26:25.399Z,94361.00
2019-01-24T03:28:57.300Z,94366.00
2019-01-24T03:31:29.228Z,94370.00
2019-01-24T03:34:01.128Z,94371.00
2019-01-24T03:36:32.991Z,94359.00
2019-01-24T03:39:08.230Z,94368.00
2019-01-24T03:41:40.086Z,94375.00
2019-01-24T03:44:11.994Z,94372.00
2019-01-24T03:46:43.860Z,94375.00
2019-01-24T03:49:15.755Z,94368.00
2019-01-24T03:51:47.647Z,94384.00
2019-01-24T03:54:19.549Z,94381.00
2019-01-24T03:56:51.405Z,94381.00
2019-01-24T03:59:23.296Z,94383.00
2019-01-24T04:01:55.153Z,94392.00
2019-01-24T04:04:27.064Z,94386.00
2019-01-24T04:06:58.934Z,94388.00
2019-01-24T04:09:30.805Z,94385.00
2019-01-24T04:12:02.669Z,94394.00
2019-01-24T04:14:34.657Z,94393.00
2019-01-24T04:17:06.627Z,94403.00
2019-01-24T04:19:38.524Z,94400.00
2019-01-24T04:22:10.385Z,94413.00
2019-01-24T04:24:42.253Z,94411.00
2019-01-24T04:27:14.111Z,94414.00
2019-01-24T04:29:45.996Z,94416.00
2019-01-24T04:32:17.878Z,94426.00
2019-01-24T04:34:49.782Z,94423.00
2019-01-24T04:37:21.650Z,94415.00
2019-01-24T04:39:53.537Z,94423.00
2019-01-24T04:42:25.388Z,94439.00
2019-01-24T04:44:57.289Z,94432.00
2019-01-24T04:47:29.162Z,94418.00
2019-01-24T04:50:01.124Z,94411.00
2019-01-24T04:52:33.025Z,94420.00
2019-01-24T04:55:05.050Z,94426.00
2019-01-24T04:57:36.919Z,94426.00
2019-01-24T05:00:27.403Z,94435.00
2019-01-24T05:02:59.265Z,94436.00
2019-01-24T05:05:31.154Z,94422.00
2019-01-24T05:08:03.027Z,94432.00
2019-01-24T05:10:34.909Z,94426.00
2019-01-24T05:13:06.780Z,94427.00
2019-01-24T05:15:38.653Z,94440.00
2019-01-24T05:18:10.528Z,94429.00
2019-01-24T05:20:42.421Z,94439.00
2019-01-24T05:23:14.282Z,94441.00
2019-01-24T05:25:46.191Z,94446.00
2019-01-24T05:28:18.307Z,94452.00
2019-01-24T05:30:50.247Z,94458.00
2019-01-24T05:33:22.088Z,94460.00
2019-01-24T05:35:53.974Z,94468.00
2019-01-24T05:38:25.903Z,94470.00
2019-01-24T05:40:57.792Z,94473.00
2019-01-24T05:43:29.659Z,94478.00
2019-01-24T05:46:01.548Z,94481.00
2019-01-24T05:48:33.397Z,94489.00
2019-01-24T05:51:05.312Z,94498.00
2019-01-24T05:53:37.178Z,94496.00
2019-01-24T05:56:09.070Z,94491.00
2019-01-24T05:58:40.926Z,94502.00
2019-01-24T06:01:13.494Z,94509.00
2019-01-24T06:03:45.378Z,94514.00
2019-01-24T06:06:17.315Z,94522.00
2019-01-24T06:08:49.169Z,94520.00
2019-01-24T06:11:21.058Z,94522.00
2019-01-24T06:13:52.951Z,94521.00
2019-01-24T06:16:24.865Z,94522.00
2019-01-24T06:18:56.745Z,94523.00
2019-01-24T06:21:28.740Z,94524.00
2019-01-24T06:24:00.603Z,94527.00
2019-01-24T06:26:32.563Z,94518.00
2019-01-24T06:29:04.429Z,94528.00
2019-01-24T06:31:36.325Z,94524.00
2019-01-24T06:34:08.186Z,94526.00
2019-01-24T06:36:40.125Z,94522.00
2019-01-24T06:39:11.970Z,94531.00
2019-01-24T06:41:43.962Z,94531.00
2019-01-24T06:44:15.817Z,94538.00
2019-01-24T06:46:47.723Z,94538.00
2019-01-24T06:49:19.583Z,94547.00
2019-01-24T06:51:51.496Z,94534.00
2019-01-24T06:54:23.394Z,94541.00
2019-01-24T06:56:55.311Z,94540.00
2019-01-24T06:59:27.170Z,94546.00
2019-01-24T07:01:59.170Z,94550.00
2019-01-24T07:04:31.018Z,94535.00
2019-01-24T07:07:03.428Z,94555.00
2019-01-24T07:09:35.282Z,94560.00
2019-01-24T07:12:07.192Z,94552.00
2019-01-24T07:14:39.049Z,94559.00
2019-01-24T07:17:10.985Z,94569.00
2019-01-24T07:19:42.849Z,94563.00
2019-01-24T07:22:14.775Z,94571.00
2019-01-24T07:24:46.634Z,94576.00
2019-01-24T07:27:18.560Z,94576.00
2019-01-24T07:29:50.427Z,94579.00
2019-01-24T07:32:22.422Z,94590.00
2019-01-24T07:34:54.306Z,94597.00
2019-01-24T07:37:26.279Z,94589.00
2019-01-24T07:39:58.241Z,94596.00
2019-01-24T07:42:30.150Z,94601.00
2019-01-24T07:45:02.072Z,94606.00
2019-01-24T07:47:33.950Z,94607.00
2019-01-24T07:50:07.419Z,94606.00
2019-01-24T07:52:39.424Z,94616.00
2019-01-24T07:55:11.742Z,94618.00
2019-01-24T07:57:44.080Z,94624.00
2019-01-24T08:00:23.262Z,94642.00
2019-01-24T08:02:55.160Z,94639.00
2019-01-24T08:05:27.727Z,94639.00
2019-01-24T08:07:59.732Z,94646.00
2019-01-24T08:10:31.598Z,94633.00
2019-01-24T08:13:03.507Z,94644.00
2019-01-24T08:15:35.364Z,94646.00
2019-01-24T08:18:07.284Z,94646.00
2019-01-24T08:20:39.248Z,94644.00
2019-01-24T08:23:11.157Z,94645.00
2019-01-24T08:25:43.012Z,94651.00
2019-01-24T08:28:14.911Z,94644.00
2019-01-24T08:30:46.776Z,94655.00
2019-01-24T08:33:18.668Z,94649.00
2019-01-24T08:35:50.521Z,94656.00
2019-01-24T08:38:22.424Z,94648.00
2019-01-24T08:40:54.271Z,94655.00
2019-01-24T08:43:26.267Z,94645.00
2019-01-24T08:45:58.127Z,94657.00
2019-01-24T08:48:30.020Z,94655.00
2019-01-24T08:51:01.914Z,94664.00
2019-01-24T08:53:33.821Z,94659.00
2019-01-24T08:56:05.682Z,94650.00
2019-01-24T08:58:37.571Z,94665.00
2019-01-24T09:01:09.413Z,94663.00
2019-01-24T09:03:41.302Z,94658.00
2019-01-24T09:06:13.173Z,94665.00
2019-01-24T09:08:45.056Z,94664.00
2019-01-24T09:11:16.987Z,94668.00
2019-01-24T09:13:48.865Z,94675.00
2019-01-24T09:16:20.722Z,94671.00
2019-01-24T09:18:52.604Z,94672.00
2019-01-24T09:21:24.447Z,94673.00
2019-01-24T09:23:56.337Z,94684.00
2019-01-24T09:26:28.199Z,94690.00
2019-01-24T09:29:00.149Z,94688.00
2019-01-24T09:31:32.020Z,94679.00
2019-01-24T09:34:04.139Z,94677.00
2019-01-24T09:36:35.998Z,94670.00
2019-01-24T09:39:09.650Z,94681.00
2019-01-24T09:41:41.490Z,94675.00
2019-01-24T09:44:13.373Z,94698.00
2019-01-24T09:46:45.212Z,94693.00
2019-01-24T09:49:17.107Z,94692.00
2019-01-24T09:51:48.985Z,94698.00
2019-01-24T09:54:20.886Z,94690.00
2019-01-24T09:56:52.724Z,94701.00
2019-01-24T09:59:24.600Z,94699.00
2019-01-24T10:01:56.523Z,94693.00
2019-01-24T10:04:28.404Z,94684.00
2019-01-24T10:07:00.247Z,94694.00
2019-01-24T10:09:32.127Z,94694.00
2019-01-24T10:12:04.205Z,94694.00
2019-01-24T10:14:36.079Z,94690.00
2019-01-24T10:17:08.104Z,94697.00
2019-01-24T10:19:39.977Z,94694.00
2019-01-24T10:22:11.839Z,94696.00
2019-01-24T10:24:43.789Z,94699.00
2019-01-24T10:27:15.634Z,94703.00
2019-01-24T10:29:47.521Z,94704.00
2019-01-24T10:32:19.362Z,94694.00
2019-01-24T10:34:51.243Z,94702.00
2019-01-24T10:37:23.190Z,94708.00
2019-01-24T10:39:55.108Z,94707.00
2019-01-24T10:42:26.974Z,94704.00
2019-01-24T10:44:58.895Z,94699.00
2019-01-24T10:47:30.777Z,94693.00
2019-01-24T10:50:02.737Z,94702.00
2019-01-24T10:52:34.632Z,94710.00
2019-01-24T10:55:13.598Z,94713.00
2019-01-24T10:57:41.327Z,94712.00
2019-01-24T11:00:20.804Z,94710.00
2019-01-24T11:02:52.661Z,94711.00
2019-01-24T11:05:24.615Z,94708.00
2019-01-24T11:07:56.503Z,94718.00
2019-01-24T11:10:28.381Z,94706.00
2019-01-24T11:13:00.251Z,94705.00
2019-01-24T11:15:32.531Z,94709.00
2019-01-24T11:18:05.810Z,94712.00
2019-01-24T11:20:37.708Z,94710.00
2019-01-24T11:23:09.650Z,94708.00
2019-01-24T11:25:41.656Z,94723.00
2019-01-24T11:28:13.513Z,94719.00
2019-01-24T11:30:45.399Z,94726.00
2019-01-24T11:33:17.256Z,94726.00
2019-01-24T11:35:49.145Z,94726.00
2019-01-24T11:38:20.990Z,94722.00
2019-01-24T11:40:52.870Z,94719.00
2019-01-24T11:43:24.744Z,94734.00
2019-01-24T11:45:56.619Z,94734.00
2019-01-24T11:48:28.473Z,94732.00
2019-01-24T11:51:00.354Z,94725.00
2019-01-24T11:53:32.243Z,94727.00
2019-01-24T11:56:04.118Z,94723.00
2019-01-24T11:58:36.814Z,94721.00
2019-01-24T12:01:08.703Z,94722.00
2019-01-24T12:03:40.734Z,94718.00
2019-01-24T12:06:13.021Z,94722.00
2019-01-24T12:08:44.876Z,94722.00
2019-01-24T12:11:16.764Z,94717.00
2019-01-24T12:13:48.632Z,94727.00
2019-01-24T12:16:20.505Z,94734.00
2019-01-24T12:18:52.372Z,94732.00
2019-01-24T12:21:24.348Z,94741.00
2019-01-24T12:23:56.223Z,94744.00
2019-01-24T12:26:28.173Z,94745.00
2019-01-24T12:29:00.045Z,94743.00
2019-01-24T12:31:32.090Z,94744.00
2019-01-24T12:34:03.953Z,94746.00
2019-01-24T12:36:35.846Z,94749.00
2019-01-24T12:39:10.012Z,94751.00
2019-01-24T12:41:41.991Z,94759.00
2019-01-24T12:44:13.925Z,94747.00
2019-01-24T12:46:45.873Z,94758.00
2019-01-24T12:49:18.642Z,94758.00
2019-01-24T12:51:50.526Z,94762.00
2019-01-24T12:54:22.450Z,94752.00
2019-01-24T12:56:54.362Z,94752.00
2019-01-24T12:59:26.261Z,94754.00
2019-01-24T13:01:58.234Z,94768.00
2019-01-24T13:04:30.210Z,94776.00
2019-01-24T13:07:02.200Z,94770.00
2019-01-24T13:09:34.092Z,94774.00
2019-01-24T13:12:06.110Z,94765.00
2019-01-24T13:14:37.961Z,94773.00
2019-01-24T13:17:10.061Z,94776.00
2019-01-24T13:19:42.016Z,94783.00
2019-01-24T13:22:14.247Z,94783.00
2019-01-24T13:24:46.893Z,94786.00
2019-01-24T13:27:19.156Z,94779.00
2019-01-24T13:29:51.110Z,94781.00
2019-01-24T13:32:23.053Z,94782.00
2019-01-24T13:34:55.663Z,94785.00
2019-01-24T13:37:28.430Z,94789.00
2019-01-24T13:40:02.179Z,94786.00
2019-01-24T13:42:35.551Z,94786.00
2019-01-24T13:45:12.418Z,94791.00
2019-01-24T13:47:45.673Z,94790.00
2019-01-24T13:50:19.779Z,94797.00
2019-01-24T13:52:53.732Z,94798.00
2019-01-24T13:55:28.472Z,94797.00
2019-01-24T13:58:03.411Z,94807.00
2019-01-24T14:00:40.379Z,94801.00
2019-01-24T14:03:30.924Z,94811.00
2019-01-24T14:06:03.419Z,94813.00
2019-01-24T14:08:36.099Z,94821.00
2019-01-24T14:11:09.669Z,94819.00
2019-01-24T14:13:43.614Z,94816.00
2019-01-24T14:16:16.634Z,94825.00
2019-01-24T14:18:50.588Z,94829.00
2019-01-24T14:21:24.111Z,94829.00
2019-01-24T14:23:59.756Z,94835.00
2019-01-24T14:26:34.545Z,94846.00
2019-01-24T14:29:08.797Z,94837.00
2019-01-24T14:31:42.737Z,94844.00
2019-01-24T14:34:16.937Z,94850.00
2019-01-24T14:36:52.107Z,94841.00
2019-01-24T14:39:27.176Z,94849.00
2019-01-24T14:42:01.736Z,94851.00
2019-01-24T14:44:34.995Z,94856.00
2019-01-24T14:47:08.393Z,94861.00
2019-01-24T14:49:42.378Z,94863.00
2019-01-24T14:52:16.553Z,94878.00
2019-01-24T14:54:51.302Z,94883.00
2019-01-24T14:57:26.670Z,94881.00
2019-01-24T15:00:01.716Z,94893.00
2019-01-24T15:02:35.771Z,94887.00
2019-01-24T15:05:11.549Z,94889.00
2019-01-24T15:07:47.307Z,94894.00
2019-01-24T15:10:21.541Z,94909.00
2019-01-24T15:12:56.782Z,94903.00
2019-01-24T15:15:31.268Z,94902.00
2019-01-24T15:18:06.532Z,94913.00
2019-01-24T15:20:40.658Z,94907.00
2019-01-24T15:23:15.180Z,94904.00
2019-01-24T15:25:49.225Z,94903.00
2019-01-24T15:28:23.441Z,94902.00
2019-01-24T15:30:57.216Z,94903.00
2019-01-24T15:33:32.946Z,94907.00
2019-01-24T15:36:07.890Z,94907.00
2019-01-24T15:38:44.213Z,94905.00
2019-01-24T15:41:20.051Z,94918.00
2019-01-24T15:43:56.821Z,94910.00
2019-01-24T15:46:32.626Z,94914.00
2019-01-24T15:49:07.213Z,94915.00
2019-01-24T15:51:42.088Z,94913.00
2019-01-24T15:54:16.954Z,94918.00
2019-01-24T15:56:51.812Z,94915.00
2019-01-24T15:59:26.764Z,94913.00
2019-01-24T16:02:03.703Z,94921.00
2019-01-24T16:04:40.585Z,94926.00
2019-01-24T16:07:17.443Z,94928.00
2019-01-24T16:09:54.174Z,94930.00
2019-01-24T16:12:30.588Z,94924.00
2019-01-24T16:15:09.341Z,94940.00
2019-01-24T16:17:45.849Z,94941.00
2019-01-24T16:20:24.549Z,94945.00
2019-01-24T16:23:02.340Z,94951.00
2019-01-24T16:25:39.012Z,94956.00
2019-01-24T16:28:16.241Z,94949.00
2019-01-24T16:30:53.596Z,94957.00
2019-01-24T16:33:32.688Z,94962.00
2019-01-24T16:36:09.767Z,94958.00
2019-01-24T16:38:47.118Z,94960.00
2019-01-24T16:41:25.023Z,94968.00
2019-01-24T16:44:03.150Z,94969.00
2019-01-24T16:46:40.625Z,94981.00
2019-01-24T16:49:18.906Z,94980.00
2019-01-24T16:51:55.557Z,94983.00
2019-01-24T16:54:31.851Z,94990.00
2019-01-24T16:57:09.021Z,94985.00
2019-01-24T16:59:46.783Z,94990.00
2019-01-24T17:02:25.900Z,94993.00
2019-01-24T17:05:05.682Z,95000.00
2019-01-24T17:07:43.283Z,94994.00
2019-01-24T17:10:21.276Z,94998.00
2019-01-24T17:12:58.444Z,95004.00
2019-01-24T17:15:35.789Z,95000.00
2019-01-24T17:18:12.279Z,94996.00
2019-01-24T17:20:49.402Z,94996.00
2019-01-24T17:23:26.030Z,95008.00
2019-01-24T17:26:05.063Z,95004.00
2019-01-24T17:28:42.790Z,95002.00
2019-01-24T17:31:22.036Z,95017.00
2019-01-24T17:34:00.486Z,95019.00
2019-01-24T17:36:37.126Z,95015.00
2019-01-24T17:39:16.285Z,95024.00
2019-01-24T17:41:53.646Z,95014.00
2019-01-24T17:44:31.785Z,95013.00
2019-01-24T17:47:10.507Z,95020.00
2019-01-24T17:49:49.635Z,95029.00
2019-01-24T17:52:38.125Z,95033.00
2019-01-24T17:55:24.815Z,95036.00
2019-01-24T17:58:07.094Z,95036.00
2019-01-24T18:00:50.141Z,95046.00
2019-01-24T18:03:28.320Z,95049.00
2019-01-24T18:06:06.962Z,95047.00
2019-01-24T18:08:46.526Z,95044.00
2019-01-24T18:11:26.328Z,95055.00
2019-01-24T18:14:04.921Z,95055.00
2019-01-24T18:16:44.040Z,95062.00
2019-01-24T18:19:22.196Z,95059.00
2019-01-24T18:22:05.001Z,95060.00
2019-01-24T18:24:43.894Z,95063.00
2019-01-24T18:27:22.990Z,95073.00
2019-01-24T18:30:01.720Z,95070.00
2019-01-24T18:32:41.618Z,95075.00
2019-01-24T18:35:20.440Z,95072.00
2019-01-24T18:37:59.173Z,95071.00
2019-01-24T18:40:38.680Z,95082.00
2019-01-24T18:43:23.292Z,95091.00
2019-01-24T18:46:04.298Z,95087.00
2019-01-24T18:48:43.830Z,95081.00
2019-01-24T18:51:22.350Z,95093.00
2019-01-24T18:54:00.186Z,95104.00
2019-01-24T18:56:38.421Z,95100.00
2019-01-24T18:59:16.869Z,95110.00
2019-01-24T19:01:55.662Z,95106.00
2019-01-24T19:04:34.326Z,95108.00
2019-01-24T19:07:13.795Z,95115.00
2019-01-24T19:09:54.595Z,95109.00
2019-01-24T19:12:33.579Z,95112.00
2019-01-24T19:15:17.021Z,95111.00
2019-01-24T19:17:56.019Z,95118.00
2019-01-24T19:20:34.941Z,95117.00
2019-01-24T19:23:14.492Z,95118.00
2019-01-24T19:25:53.646Z,95116.00
2019-01-24T19:28:33.775Z,95113.00
2019-01-24T19:31:12.628Z,94975.00
2019-01-24T19:33:53.338Z,95122.00
2019-01-24T19:36:31.739Z,95108.00
2019-01-24T19:39:13.783Z,95128.00
2019-01-24T19:41:53.354Z,95139.00
2019-01-24T19:44:33.163Z,95141.00
2019-01-24T19:47:12.812Z,95123.00
2019-01-24T19:49:52.575Z,95130.00
2019-01-24T19:52:32.415Z,95138.00
2019-01-24T19:55:12.236Z,95132.00
2019-01-24T19:57:52.034Z,95132.00
2019-01-24T20:00:33.762Z,95136.00
2019-01-24T20:03:13.648Z,95138.00
2019-01-24T20:05:53.597Z,95138.00
2019-01-24T20:08:33.183Z,95128.00
2019-01-24T20:11:15.959Z,95145.00
2019-01-24T20:13:56.034Z,95150.00
2019-01-24T20:16:34.475Z,95149.00
2019-01-24T20:19:12.915Z,95154.00
2019-01-24T20:21:54.112Z,95152.00
2019-01-24T20:24:38.038Z,95157.00
2019-01-24T20:27:17.491Z,95157.00
2019-01-24T20:29:57.251Z,95165.00
2019-01-24T20:32:37.792Z,95167.00
2019-01-24T20:35:21.771Z,95174.00
2019-01-24T20:38:00.527Z,95178.00
2019-01-24T20:40:40.308Z,95174.00
2019-01-24T20:43:18.442Z,95181.00
2019-01-24T20:45:57.604Z,95187.00
2019-01-24T20:48:38.858Z,95175.00
2019-01-24T20:51:16.870Z,95184.00
2019-01-24T20:53:55.151Z,95198.00
2019-01-24T20:56:35.946Z,95190.00
2019-01-24T20:59:14.416Z,95190.00
2019-01-24T21:01:51.592Z,95191.00
2019-01-24T21:04:30.507Z,95198.00
2019-01-24T21:07:09.582Z,95202.00
2019-01-24T21:09:46.951Z,95197.00
2019-01-24T21:12:25.153Z,95197.00
2019-01-24T21:15:05.302Z,95211.00
2019-01-24T21:17:43.250Z,95197.00
2019-01-24T21:20:22.921Z,95206.00
2019-01-24T21:22:59.891Z,95202.00
2019-01-24T21:25:36.189Z,95213.00
2019-01-24T21:28:13.230Z,95215.00
2019-01-24T21:30:50.043Z,95221.00
2019-01-24T21:33:30.615Z,95221.00
2019-01-24T21:36:07.367Z,95224.00
2019-01-24T21:38:52.073Z,95228.00
2019-01-24T21:41:29.350Z,95224.00
2019-01-24T21:44:05.219Z,95224.00
2019-01-24T21:46:40.486Z,95242.00
2019-01-24T21:49:16.233Z,95230.00
2019-01-24T21:51:52.829Z,95235.00
2019-01-24T21:54:28.722Z,95230.00
2019-01-24T21:57:05.596Z,95233.00
2019-01-24T21:59:42.540Z,95234.00
2019-01-24T22:02:18.435Z,95233.00
2019-01-24T22:04:52.500Z,95237.00
2019-01-24T22:07:26.477Z,95237.00
2019-01-24T22:10:00.762Z,95233.00
2019-01-24T22:12:34.380Z,95227.00
2019-01-24T22:15:13.086Z,95225.00
2019-01-24T22:17:46.160Z,95243.00
2019-01-24T22:20:18.663Z,95230.00
2019-01-24T22:22:51.422Z,95236.00
2019-01-24T22:25:33.051Z,95237.00
2019-01-24T22:28:06.117Z,95240.00
2019-01-24T22:30:50.623Z,95236.00
2019-01-24T22:33:22.541Z,95246.00
2019-01-24T22:35:54.397Z,95251.00
2019-01-24T22:38:26.392Z,95239.00
2019-01-24T22:40:58.974Z,95238.00
2019-01-24T22:43:30.831Z,95237.00
2019-01-24T22:46:02.838Z,95243.00
2019-01-24T22:48:35.068Z,95242.00
2019-01-24T22:51:06.963Z,95237.00
2019-01-24T22:53:38.826Z,95239.00
2019-01-24T22:56:10.752Z,95238.00
2019-01-24T22:58:42.620Z,95234.00
2019-01-24T23:01:51.048Z,95247.00
2019-01-24T23:04:25.626Z,95239.00
2019-01-24T23:06:57.524Z,95239.00
2019-01-24T23:09:29.392Z,95237.00
2019-01-24T23:12:01.282Z,95239.00
2019-01-24T23:14:33.154Z,95235.00
2019-01-24T23:17:05.079Z,95242.00
2019-01-24T23:19:36.927Z,95238.00
2019-01-24T23:22:08.850Z,95232.00
2019-01-24T23:24:40.797Z,95242.00
2019-01-24T23:27:12.676Z,95235.00
2019-01-24T23:29:44.540Z,95233.00
2019-01-24T23:32:16.456Z,95245.00
2019-01-24T23:34:48.330Z,95232.00
2019-01-24T23:37:20.228Z,95225.00
2019-01-24T23:39:53.596Z,95239.00
2019-01-24T23:42:25.615Z,95233.00
2019-01-24T23:44:57.506Z,95234.00
2019-01-24T23:47:29.435Z,95235.00
2019-01-24T23:50:01.310Z,95240.00
2019-01-24T23:52:33.300Z,95247.00
2019-01-24T23:55:05.496Z,95244.00
2019-01-24T23:57:37.466Z,95255.00
